world map with SIN marked

SIN - Airport

This information may not be accurate or current and is not valid for navigation or flight planning. No warranty of fitness for any purpose is made or implied.

flag of Singapore

Donate via PayPal

Additional information is available on the NEW Great Circle Mapper

Location
City:  Singapore, Singapore
Name:Changi International Airport
ICAO / IATA:WSSS / SIN

Details
Type:Airport (Aerodrome, Airfield)
Use:Public/Civil
Latitude:1°21'33"N (1.359211)
Longitude:103°59'22"E (103.989333)
Elevation:22 ft (7 m)
Runways:3
Longest:13123 × 197 ft (4000 × 60 m)

Time
Timezone:UTC+8 (DST+10)
Local Time:

Weather
METAR:WSSS  220630Z 19007KT 150V250 9999 FEW018TCU BKN300 31/24 Q1010 NOSIG
TAF:WSSS  212300Z 2200/2306 17009KT 9999 FEW018CB SCT020= TAF WSAP 212300Z 2200/2306 17009KT 9999 FEW018CB SCT020

Related Locations
Nearby:
Farthest:SENU: 12388 mi / 19936 km
Nuevo Rocafuerte, D, EC

Find:

   beyond  
but within

Other Information
Maps:
Links:
Sources:

  


 


Great Circle Mapper   Great Circle Mapper
Great Circle Mapper FAQ   Great Circle Mapper FAQ
  Karl's Home Page
KLSē   KLSē Home
   GC on Facebook
Airlines of the World   Airlines of the World
Donate via PayPal


Copyright © 2004-2017, Karl L. Swartz. All rights reserved.
All trademarks mentioned herein belong to their respective owners.

Please see credits for attribution and copyright information.

Karl Swartz <karl@kls2.com>
  Powered by FreeBSD
Valid HTML 4.01!
Labeled with ICRA
hCard Microformat
Geo Microformat